Time;durP1;ratioP1;P1;durP2;ratioP2;P2;SDS_P1;SDS_P2;PMS_P1;PMS_P2;Temp;Humidity;BMP_temperature;BMP_pressure;BME280_temperature;BME280_humidity;BME280_pressure;Samples;Min_cycle;Max_cycle;Signal;HPM_P1;HPM_P2
2023/09/01 00:02:07;;;;;;;0.45;0.40;;;17.10;75.30;;;;;;5104636;28;20124;-71
2023/09/01 00:04:33;;;;;;;0.47;0.47;;;17.10;75.50;;;;;;5104649;28;20335;-71
2023/09/01 00:07:02;;;;;;;1.45;0.68;;;17.10;75.50;;;;;;5107747;28;20434;-71
2023/09/01 00:09:27;;;;;;;0.50;0.50;;;17.10;75.50;;;;;;5104438;28;20385;-71
2023/09/01 00:11:53;;;;;;;1.25;0.82;;;17.10;75.50;;;;;;5108155;28;20053;-71
2023/09/01 00:14:19;;;;;;;0.85;0.40;;;17.10;75.60;;;;;;5108785;28;20037;-71
2023/09/01 00:16:44;;;;;;;2.08;0.82;;;17.10;75.60;;;;;;5107155;28;20031;-71
2023/09/01 00:19:10;;;;;;;1.27;1.02;;;17.00;75.70;;;;;;5104946;28;20364;-71
2023/09/01 00:21:36;;;;;;;0.70;0.60;;;17.10;75.80;;;;;;5105323;28;20386;-71
2023/09/01 00:24:03;;;;;;;1.73;0.90;;;17.00;75.90;;;;;;5110153;28;20078;-71
2023/09/01 00:26:29;;;;;;;0.70;0.70;;;17.10;76.00;;;;;;5112184;28;20019;-71
2023/09/01 00:28:55;;;;;;;1.92;0.70;;;17.10;76.20;;;;;;5111249;27;20036;-71
2023/09/01 00:31:20;;;;;;;0.85;0.60;;;17.10;76.30;;;;;;5093419;28;20455;-71
2023/09/01 00:33:46;;;;;;;0.60;0.60;;;17.10;76.30;;;;;;5111303;28;20063;-71
2023/09/01 00:36:12;;;;;;;1.85;1.15;;;17.10;76.30;;;;;;5110359;27;20055;-71
2023/09/01 00:38:38;;;;;;;1.52;0.55;;;17.10;76.30;;;;;;5110975;28;20474;-71
2023/09/01 00:41:03;;;;;;;2.90;0.80;;;17.00;76.30;;;;;;5107883;28;20371;-71
2023/09/01 00:43:29;;;;;;;2.20;0.57;;;17.00;76.30;;;;;;5114174;27;20027;-71
2023/09/01 00:45:56;;;;;;;1.23;0.80;;;17.00;76.20;;;;;;5108439;27;20032;-71
2023/09/01 00:48:22;;;;;;;0.68;0.63;;;17.10;76.30;;;;;;5107630;28;20016;-72
2023/09/01 00:50:49;;;;;;;0.90;0.88;;;17.00;76.20;;;;;;5112061;27;20024;-72
2023/09/01 00:53:15;;;;;;;2.50;0.70;;;17.00;76.30;;;;;;5106170;28;20019;-72
2023/09/01 00:55:41;;;;;;;0.93;0.60;;;17.00;76.30;;;;;;5105774;27;20478;-71
2023/09/01 00:58:07;;;;;;;0.50;0.50;;;17.00;76.30;;;;;;5110108;28;20053;-71
2023/09/01 01:00:33;;;;;;;0.75;0.75;;;17.00;76.30;;;;;;5107486;28;20130;-71
2023/09/01 01:03:04;;;;;;;1.75;1.00;;;16.90;76.40;;;;;;5109218;27;20492;-71
2023/09/01 01:05:58;;;;;;;1.08;0.88;;;17.00;76.50;;;;;;5104432;27;20036;-71
2023/09/01 01:08:30;;;;;;;0.80;0.60;;;16.90;76.60;;;;;;5107975;28;20481;-72
2023/09/01 01:11:09;;;;;;;1.10;0.73;;;16.80;76.90;;;;;;5104552;27;20024;-71
2023/09/01 01:13:39;;;;;;;1.58;1.30;;;16.90;76.90;;;;;;5108790;28;20023;-71
2023/09/01 01:16:06;;;;;;;0.95;0.80;;;16.80;77.00;;;;;;5111033;28;20114;-71
2023/09/01 01:18:35;;;;;;;0.70;0.70;;;16.80;77.00;;;;;;5110135;28;20035;-71
2023/09/01 01:21:07;;;;;;;1.20;0.88;;;16.80;76.90;;;;;;5109374;28;20038;-71
2023/09/01 01:23:33;;;;;;;1.02;0.93;;;16.90;76.90;;;;;;5104800;28;20433;-71
2023/09/01 01:25:59;;;;;;;1.27;0.98;;;16.80;77.00;;;;;;5108113;28;20053;-72
2023/09/01 01:28:25;;;;;;;2.25;1.35;;;16.80;77.10;;;;;;5092098;28;20027;-71
2023/09/01 01:30:51;;;;;;;1.38;0.73;;;16.80;77.30;;;;;;5108897;28;20034;-71
2023/09/01 01:33:42;;;;;;;1.55;0.85;;;16.80;77.30;;;;;;5099460;28;20021;-71
2023/09/01 01:36:26;;;;;;;1.98;0.70;;;16.80;77.30;;;;;;5108921;28;20027;-71
2023/09/01 01:39:15;;;;;;;1.55;0.93;;;16.80;77.30;;;;;;5107255;27;20047;-71
2023/09/01 01:41:54;;;;;;;0.80;0.60;;;16.80;77.30;;;;;;5099989;28;20024;-71
2023/09/01 01:44:23;;;;;;;2.13;1.08;;;16.70;77.30;;;;;;5108528;28;20469;-72
2023/09/01 01:46:50;;;;;;;2.92;0.60;;;16.70;77.40;;;;;;5107730;28;20050;-72
2023/09/01 01:49:16;;;;;;;1.40;1.05;;;16.60;77.40;;;;;;5109972;28;20122;-71
2023/09/01 01:51:42;;;;;;;0.77;0.60;;;16.60;77.20;;;;;;5108927;28;20103;-71
2023/09/01 01:54:08;;;;;;;2.00;0.90;;;16.60;77.10;;;;;;5111300;27;20026;-71
2023/09/01 01:56:34;;;;;;;1.42;0.50;;;16.60;77.00;;;;;;5110503;27;20111;-71
2023/09/01 01:58:59;;;;;;;1.08;0.63;;;16.60;76.90;;;;;;5104060;28;20027;-71
2023/09/01 02:01:25;;;;;;;0.77;0.70;;;16.50;76.80;;;;;;5106503;28;20040;-72
2023/09/01 02:03:52;;;;;;;1.02;0.93;;;16.50;76.80;;;;;;5107833;28;20093;-71
2023/09/01 02:06:18;;;;;;;2.40;1.00;;;16.50;76.90;;;;;;5109765;27;20058;-72
2023/09/01 02:08:44;;;;;;;1.27;0.98;;;16.40;77.40;;;;;;5107165;28;20047;-71
2023/09/01 02:11:09;;;;;;;0.75;0.70;;;16.40;76.90;;;;;;5110512;27;20039;-72
2023/09/01 02:13:35;;;;;;;1.33;0.88;;;16.40;76.90;;;;;;5108541;28;20042;-71
2023/09/01 02:16:00;;;;;;;2.35;1.15;;;16.30;76.90;;;;;;5113794;27;20035;-71
2023/09/01 02:18:29;;;;;;;1.75;1.17;;;16.30;76.90;;;;;;5092642;28;20031;-72
2023/09/01 02:20:55;;;;;;;1.55;0.70;;;16.40;76.90;;;;;;5108362;28;20352;-72
2023/09/01 02:23:21;;;;;;;0.80;0.70;;;16.30;76.90;;;;;;5088858;28;20026;-71
2023/09/01 02:25:46;;;;;;;2.13;0.93;;;16.20;76.90;;;;;;5106482;28;20031;-71
2023/09/01 02:28:12;;;;;;;2.08;1.10;;;16.20;76.80;;;;;;5102508;28;20059;-71
2023/09/01 02:30:38;;;;;;;1.50;0.93;;;16.20;76.70;;;;;;5105102;28;20027;-71
2023/09/01 02:33:05;;;;;;;3.05;1.10;;;16.20;76.90;;;;;;5104678;28;20039;-71
2023/09/01 02:35:31;;;;;;;1.40;1.05;;;16.20;77.00;;;;;;5097933;27;20024;-72
2023/09/01 02:37:56;;;;;;;2.28;0.70;;;16.20;76.90;;;;;;5103534;28;20038;-72
2023/09/01 02:40:24;;;;;;;1.40;0.80;;;16.20;76.80;;;;;;5105599;28;20089;-71
2023/09/01 02:42:53;;;;;;;1.10;0.90;;;16.10;76.70;;;;;;5100562;28;20077;-72
2023/09/01 02:45:19;;;;;;;2.80;1.10;;;16.10;76.70;;;;;;5101803;28;20024;-72
2023/09/01 02:47:44;;;;;;;1.25;0.85;;;16.10;76.70;;;;;;5105795;28;20036;-71
2023/09/01 02:50:10;;;;;;;4.55;1.00;;;16.00;76.80;;;;;;5107837;28;20108;-71
2023/09/01 02:52:45;;;;;;;2.00;1.10;;;16.00;76.80;;;;;;5102593;28;20516;-72
2023/09/01 02:55:12;;;;;;;1.45;1.23;;;16.00;76.80;;;;;;5091220;28;20028;-72
2023/09/01 02:57:38;;;;;;;2.40;1.35;;;16.00;76.90;;;;;;5107186;27;20060;-71
2023/09/01 03:00:21;;;;;;;0.98;0.90;;;16.00;76.90;;;;;;5103789;28;20063;-71
2023/09/01 03:02:47;;;;;;;1.35;0.77;;;16.00;77.00;;;;;;5099194;28;20067;-71
2023/09/01 03:05:13;;;;;;;5.00;1.15;;;15.90;77.00;;;;;;5102106;28;20521;-71
2023/09/01 03:07:40;;;;;;;1.48;0.60;;;15.90;76.90;;;;;;5108325;28;20038;-71
2023/09/01 03:10:10;;;;;;;1.58;1.13;;;15.90;76.80;;;;;;5102956;28;20028;-71
2023/09/01 03:12:38;;;;;;;1.48;1.17;;;15.90;76.90;;;;;;5107946;27;20452;-71
2023/09/01 03:15:05;;;;;;;1.58;1.20;;;15.90;76.80;;;;;;5109086;27;20023;-72
2023/09/01 03:17:31;;;;;;;1.30;0.93;;;15.90;76.90;;;;;;5108406;28;20057;-72
2023/09/01 03:19:56;;;;;;;1.58;1.08;;;15.90;77.00;;;;;;5083504;28;20028;-71
2023/09/01 03:22:23;;;;;;;1.33;0.82;;;15.90;76.90;;;;;;5105761;28;20037;-71
2023/09/01 03:24:53;;;;;;;1.65;0.90;;;15.80;76.90;;;;;;5088859;28;20024;-73
2023/09/01 03:27:18;;;;;;;1.50;1.35;;;15.80;76.90;;;;;;5100834;28;20065;-71
2023/09/01 03:29:45;;;;;;;1.70;0.80;;;15.80;77.00;;;;;;5103935;28;20023;-71
2023/09/01 03:32:10;;;;;;;0.85;0.80;;;15.80;76.90;;;;;;5108696;28;20604;-71
2023/09/01 03:34:37;;;;;;;1.13;0.85;;;15.80;76.90;;;;;;5104101;27;20032;-71
2023/09/01 03:37:03;;;;;;;1.95;1.00;;;15.80;76.90;;;;;;5104000;28;20537;-72
2023/09/01 03:39:29;;;;;;;1.42;1.02;;;15.80;77.00;;;;;;5109087;27;20024;-71
2023/09/01 03:41:54;;;;;;;1.52;1.00;;;15.80;77.20;;;;;;5106732;28;20042;-71
2023/09/01 03:44:20;;;;;;;2.55;1.27;;;15.80;77.30;;;;;;5089435;28;20431;-72
2023/09/01 03:46:46;;;;;;;0.77;0.77;;;15.80;77.30;;;;;;5106550;28;20414;-71
2023/09/01 03:49:11;;;;;;;2.10;1.20;;;15.80;77.30;;;;;;5106568;27;20023;-71
2023/09/01 03:51:37;;;;;;;2.45;1.00;;;15.80;77.30;;;;;;5107820;28;20035;-71
2023/09/01 03:54:03;;;;;;;1.65;1.20;;;15.90;77.40;;;;;;5108200;28;20049;-70
2023/09/01 03:56:28;;;;;;;3.75;1.25;;;15.90;77.60;;;;;;5086897;28;20031;-71
2023/09/01 03:58:54;;;;;;;4.32;1.45;;;15.90;77.70;;;;;;5104962;28;20062;-71
2023/09/01 04:01:21;;;;;;;2.40;1.42;;;15.90;77.90;;;;;;5108178;27;20058;-71
2023/09/01 04:03:47;;;;;;;2.72;1.27;;;15.90;78.00;;;;;;5108672;28;20008;-71
2023/09/01 04:06:13;;;;;;;1.05;0.80;;;16.00;78.20;;;;;;5108524;28;20031;-71
2023/09/01 04:08:39;;;;;;;3.15;1.58;;;16.00;78.20;;;;;;5106674;28;20050;-70
2023/09/01 04:11:05;;;;;;;2.25;1.10;;;16.00;78.20;;;;;;5109340;28;20049;-71
2023/09/01 04:13:35;;;;;;;2.50;1.80;;;16.00;78.20;;;;;;5103796;28;20024;-72
2023/09/01 04:16:02;;;;;;;2.47;1.30;;;16.10;78.30;;;;;;5100879;28;20037;-71
2023/09/01 04:18:27;;;;;;;1.95;1.50;;;16.10;78.30;;;;;;5104269;28;20023;-70
2023/09/01 04:20:54;;;;;;;2.83;1.58;;;16.10;78.20;;;;;;5100295;28;20109;-71
2023/09/01 04:23:22;;;;;;;3.67;1.42;;;16.20;78.30;;;;;;5104594;28;20020;-69
2023/09/01 04:25:50;;;;;;;3.15;2.35;;;16.20;78.40;;;;;;5104722;28;20520;-70
2023/09/01 04:28:16;;;;;;;8.27;1.73;;;16.20;78.60;;;;;;5103631;28;20020;-70
2023/09/01 04:30:46;;;;;;;3.17;2.00;;;16.20;78.80;;;;;;5106430;28;20115;-70
2023/09/01 04:33:12;;;;;;;2.85;1.65;;;16.20;79.00;;;;;;5104344;28;20031;-73
2023/09/01 04:35:39;;;;;;;1.75;1.45;;;16.10;79.00;;;;;;5107166;28;20122;-70
2023/09/01 04:38:04;;;;;;;4.15;1.48;;;16.20;79.00;;;;;;5104419;28;20062;-70
2023/09/01 04:40:30;;;;;;;3.03;2.10;;;16.20;78.80;;;;;;5106193;28;20426;-69
2023/09/01 04:42:56;;;;;;;2.25;1.63;;;16.30;78.80;;;;;;5103465;28;20023;-71
2023/09/01 04:45:25;;;;;;;1.20;1.10;;;16.30;78.80;;;;;;5106331;28;20089;-71
2023/09/01 04:47:51;;;;;;;4.43;1.77;;;16.30;78.90;;;;;;5102456;28;20031;-71
2023/09/01 04:50:17;;;;;;;2.97;1.98;;;16.30;79.10;;;;;;5107025;28;20035;-70
2023/09/01 04:52:43;;;;;;;2.80;1.60;;;16.30;79.30;;;;;;5071495;28;20457;-70
2023/09/01 04:55:09;;;;;;;3.45;1.88;;;16.30;79.30;;;;;;5089019;28;20115;-70
2023/09/01 04:57:36;;;;;;;2.28;1.50;;;16.30;79.40;;;;;;5103580;28;20050;-71
2023/09/01 05:00:15;;;;;;;3.30;1.42;;;16.30;79.50;;;;;;5090402;28;20032;-70
2023/09/01 05:02:42;;;;;;;3.78;1.83;;;16.30;79.50;;;;;;5109667;28;20130;-72
2023/09/01 05:05:09;;;;;;;4.28;2.13;;;16.30;79.60;;;;;;5112310;27;20546;-72
2023/09/01 05:07:35;;;;;;;2.88;2.05;;;16.30;79.70;;;;;;5109068;28;20063;-71
2023/09/01 05:10:00;;;;;;;2.67;1.20;;;16.30;79.90;;;;;;5110010;28;20032;-71
2023/09/01 05:12:26;;;;;;;3.88;1.83;;;16.30;79.90;;;;;;5109682;27;20035;-71
2023/09/01 05:14:52;;;;;;;2.00;1.40;;;16.30;79.80;;;;;;5110938;28;20094;-71
2023/09/01 05:17:17;;;;;;;2.45;1.35;;;16.40;79.80;;;;;;5112097;27;20045;-71
2023/09/01 05:19:43;;;;;;;2.08;1.60;;;16.40;79.60;;;;;;5106076;27;20397;-71
2023/09/01 05:22:09;;;;;;;4.25;1.58;;;16.50;79.60;;;;;;5107839;28;20114;-72
2023/09/01 05:24:34;;;;;;;3.22;2.00;;;16.50;79.70;;;;;;5110210;28;20024;-72
2023/09/01 05:27:00;;;;;;;4.13;2.10;;;16.50;79.70;;;;;;5110225;28;20167;-71
2023/09/01 05:29:27;;;;;;;3.88;1.60;;;16.50;79.70;;;;;;5110692;28;20036;-71
2023/09/01 05:31:53;;;;;;;2.85;1.67;;;16.60;79.80;;;;;;5106755;28;20024;-71
2023/09/01 05:34:18;;;;;;;2.90;1.98;;;16.60;79.80;;;;;;5110147;28;20126;-71
2023/09/01 05:36:44;;;;;;;3.50;1.80;;;16.60;79.90;;;;;;5107971;28;20039;-72
2023/09/01 05:39:09;;;;;;;2.08;1.40;;;16.60;79.90;;;;;;5109944;27;20089;-72
2023/09/01 05:41:35;;;;;;;1.65;1.50;;;16.70;80.00;;;;;;5109982;27;20039;-71
2023/09/01 05:44:01;;;;;;;5.70;2.65;;;16.70;80.00;;;;;;5097705;28;20147;-72
2023/09/01 05:46:26;;;;;;;3.33;1.48;;;16.70;80.00;;;;;;5110725;27;20051;-72
2023/09/01 05:48:53;;;;;;;1.65;1.55;;;16.70;80.00;;;;;;5102406;28;20024;-71
2023/09/01 05:51:18;;;;;;;3.15;2.10;;;16.80;80.00;;;;;;5110970;28;20042;-71
2023/09/01 05:53:44;;;;;;;3.88;2.00;;;16.80;80.00;;;;;;5109003;28;20036;-72
2023/09/01 05:56:09;;;;;;;2.90;1.95;;;16.90;80.10;;;;;;5110771;28;20093;-71
2023/09/01 05:58:36;;;;;;;3.28;1.75;;;16.90;79.90;;;;;;5109060;28;20452;-72
2023/09/01 06:01:03;;;;;;;3.47;1.50;;;16.90;79.80;;;;;;5107504;27;20036;-71
2023/09/01 06:03:29;;;;;;;3.00;1.92;;;17.00;79.80;;;;;;5089182;28;20028;-72
2023/09/01 06:05:54;;;;;;;2.83;1.98;;;17.00;79.80;;;;;;5111553;27;20039;-72
2023/09/01 06:08:20;;;;;;;2.72;1.50;;;17.00;79.80;;;;;;5105972;28;20024;-71
2023/09/01 06:10:46;;;;;;;1.67;1.13;;;17.00;79.80;;;;;;5106528;27;20040;-72
2023/09/01 06:13:11;;;;;;;1.95;1.40;;;17.10;79.70;;;;;;5104009;27;20030;-72
2023/09/01 06:15:37;;;;;;;1.85;1.35;;;17.10;79.60;;;;;;5110562;28;20075;-71
2023/09/01 06:18:03;;;;;;;2.40;1.70;;;17.20;79.50;;;;;;5106207;28;20023;-72
2023/09/01 06:20:29;;;;;;;3.67;1.95;;;17.20;79.40;;;;;;5112556;27;20112;-72
2023/09/01 06:22:55;;;;;;;2.72;2.03;;;17.20;79.50;;;;;;5107998;27;20032;-72
2023/09/01 06:25:21;;;;;;;2.45;1.40;;;17.20;79.40;;;;;;5109654;27;20016;-73
2023/09/01 06:27:47;;;;;;;2.40;1.52;;;17.30;79.50;;;;;;5110238;28;20034;-71
2023/09/01 06:30:13;;;;;;;2.42;1.45;;;17.30;79.50;;;;;;5108500;28;20037;-73
2023/09/01 06:32:39;;;;;;;3.20;1.80;;;17.40;79.50;;;;;;5106438;28;20164;-72
2023/09/01 06:35:05;;;;;;;2.30;1.20;;;17.40;79.30;;;;;;5112586;27;20033;-73
2023/09/01 06:37:30;;;;;;;2.83;1.48;;;17.50;79.30;;;;;;5106472;27;20035;-71
2023/09/01 06:39:56;;;;;;;1.15;1.05;;;17.60;79.20;;;;;;5110651;27;20492;-72
2023/09/01 06:42:22;;;;;;;1.70;1.40;;;17.60;79.00;;;;;;5112668;27;20076;-73
2023/09/01 06:44:48;;;;;;;1.23;1.10;;;17.70;79.00;;;;;;5106533;28;20440;-73
2023/09/01 06:47:13;;;;;;;1.40;1.13;;;17.70;78.90;;;;;;5110156;28;20039;-72
2023/09/01 06:49:39;;;;;;;4.68;1.75;;;17.70;79.00;;;;;;5107123;28;20474;-73
2023/09/01 06:52:05;;;;;;;4.70;1.17;;;17.80;79.10;;;;;;5087054;28;20066;-73
2023/09/01 06:54:30;;;;;;;1.30;0.93;;;17.80;79.00;;;;;;5108730;28;20035;-73
2023/09/01 06:56:56;;;;;;;2.72;1.20;;;17.80;79.00;;;;;;5108390;28;20028;-74
2023/09/01 06:59:22;;;;;;;2.15;1.45;;;17.90;78.80;;;;;;5110362;27;20471;-71
2023/09/01 07:01:48;;;;;;;2.28;1.38;;;18.00;78.80;;;;;;5108976;28;20130;-70
2023/09/01 07:04:13;;;;;;;2.10;1.48;;;18.00;78.70;;;;;;5105223;28;20066;-73
2023/09/01 07:06:39;;;;;;;3.25;1.40;;;18.10;78.60;;;;;;5110206;27;20032;-71
2023/09/01 07:09:05;;;;;;;2.28;1.52;;;18.20;78.50;;;;;;5105005;28;20028;-73
2023/09/01 07:11:30;;;;;;;1.55;1.20;;;18.20;78.30;;;;;;5112443;27;20035;-73
2023/09/01 07:13:56;;;;;;;1.42;1.10;;;18.30;78.30;;;;;;5108452;28;20024;-72
2023/09/01 07:16:23;;;;;;;1.88;1.38;;;18.30;78.10;;;;;;5104135;28;20097;-72
2023/09/01 07:18:49;;;;;;;3.13;1.45;;;18.40;78.10;;;;;;5107272;28;20380;-71
2023/09/01 07:21:15;;;;;;;1.17;1.08;;;18.40;78.00;;;;;;5103320;28;20047;-71
2023/09/01 07:23:40;;;;;;;4.50;2.13;;;18.40;78.00;;;;;;5104799;28;20036;-72
2023/09/01 07:26:06;;;;;;;2.30;1.20;;;18.50;78.00;;;;;;5105517;28;20040;-71
2023/09/01 07:28:32;;;;;;;3.00;1.40;;;18.50;77.90;;;;;;5085895;28;20483;-71
2023/09/01 07:30:57;;;;;;;3.40;1.73;;;18.50;77.90;;;;;;5109057;27;20031;-71
2023/09/01 07:33:23;;;;;;;2.00;1.08;;;18.50;77.90;;;;;;5093002;28;20034;-71
2023/09/01 07:35:50;;;;;;;1.77;1.20;;;18.50;77.90;;;;;;5113284;27;20061;-72
2023/09/01 07:38:16;;;;;;;2.08;1.45;;;18.50;77.80;;;;;;5103827;27;20036;-71
2023/09/01 07:40:43;;;;;;;2.00;1.45;;;18.50;77.80;;;;;;5105395;27;20358;-71
2023/09/01 07:43:09;;;;;;;7.40;1.33;;;18.50;77.80;;;;;;5105773;28;20027;-72
2023/09/01 07:45:35;;;;;;;2.00;1.50;;;18.50;77.60;;;;;;5108513;28;20035;-71
2023/09/01 07:48:00;;;;;;;3.80;1.50;;;18.60;77.70;;;;;;5104339;28;20039;-71
2023/09/01 07:50:30;;;;;;;1.02;0.93;;;18.60;77.60;;;;;;5108015;28;20358;-71
2023/09/01 07:52:56;;;;;;;2.17;1.73;;;18.60;77.50;;;;;;5105219;28;20072;-72
2023/09/01 07:55:22;;;;;;;3.72;1.98;;;18.70;77.60;;;;;;5109752;27;20468;-72
2023/09/01 07:57:48;;;;;;;3.58;2.38;;;18.70;77.60;;;;;;5104012;28;20043;-71
2023/09/01 08:00:14;;;;;;;3.80;1.33;;;18.70;77.70;;;;;;5098807;28;20059;-71
2023/09/01 08:02:41;;;;;;;1.77;1.40;;;18.70;77.70;;;;;;5099845;28;20095;-71
2023/09/01 08:05:07;;;;;;;3.72;1.77;;;18.80;77.60;;;;;;5106173;28;20099;-72
2023/09/01 08:07:33;;;;;;;3.70;1.08;;;18.80;77.50;;;;;;5106345;28;20085;-71
2023/09/01 08:09:58;;;;;;;1.23;1.13;;;18.90;77.40;;;;;;5106665;28;20031;-72
2023/09/01 08:12:27;;;;;;;2.47;1.88;;;18.90;77.30;;;;;;5107986;28;20035;-72
2023/09/01 08:14:52;;;;;;;3.55;1.30;;;18.90;77.30;;;;;;5104730;28;20035;-72
2023/09/01 08:17:18;;;;;;;2.70;1.33;;;18.90;77.20;;;;;;5104692;28;20110;-71
2023/09/01 08:19:50;;;;;;;2.85;1.50;;;19.00;77.20;;;;;;5090256;28;20159;-72
2023/09/01 08:22:17;;;;;;;1.35;1.20;;;19.00;77.20;;;;;;5099543;28;20039;-72
2023/09/01 08:24:46;;;;;;;2.00;1.40;;;19.00;77.20;;;;;;5101195;28;20043;-72
2023/09/01 08:27:12;;;;;;;1.73;1.10;;;19.00;77.10;;;;;;5102811;28;20039;-73
2023/09/01 08:29:38;;;;;;;1.63;1.42;;;19.10;77.10;;;;;;5104213;28;20032;-72
2023/09/01 08:32:05;;;;;;;5.72;1.90;;;19.10;77.00;;;;;;5110039;28;20030;-72
2023/09/01 08:34:31;;;;;;;1.65;0.90;;;19.20;77.00;;;;;;5103022;28;20105;-71
2023/09/01 08:36:57;;;;;;;2.60;1.73;;;19.30;76.80;;;;;;5112405;27;20043;-73
2023/09/01 08:39:23;;;;;;;3.15;1.15;;;19.30;76.80;;;;;;5111619;28;20038;-72
2023/09/01 08:41:52;;;;;;;1.60;1.13;;;19.40;76.70;;;;;;5110045;28;20031;-72
2023/09/01 08:44:22;;;;;;;2.17;1.23;;;19.40;76.70;;;;;;5108090;27;20114;-72
2023/09/01 08:46:51;;;;;;;1.30;1.15;;;19.40;76.60;;;;;;5110166;28;20023;-72
2023/09/01 08:49:17;;;;;;;1.20;1.10;;;19.40;76.50;;;;;;5110786;27;20034;-72
2023/09/01 08:51:47;;;;;;;2.67;1.05;;;19.50;76.40;;;;;;5097152;27;20441;-72
2023/09/01 08:54:18;;;;;;;3.63;1.30;;;19.50;76.50;;;;;;5108224;28;20023;-71
2023/09/01 08:56:43;;;;;;;1.25;1.05;;;19.40;76.50;;;;;;5109607;28;20024;-69
2023/09/01 08:59:09;;;;;;;2.40;1.40;;;19.40;76.60;;;;;;5098332;27;20054;-73
2023/09/01 09:01:37;;;;;;;2.38;1.67;;;19.40;76.50;;;;;;5108374;27;20511;-72
2023/09/01 09:04:04;;;;;;;3.45;1.20;;;19.40;76.70;;;;;;5109344;27;20504;-73
2023/09/01 09:06:34;;;;;;;2.30;1.40;;;19.30;76.80;;;;;;5109033;27;20053;-72
2023/09/01 09:09:14;;;;;;;2.92;1.88;;;19.30;76.80;;;;;;5104721;27;20034;-72
2023/09/01 09:12:00;;;;;;;3.00;1.55;;;19.30;76.90;;;;;;5108609;28;20031;-73
2023/09/01 09:14:27;;;;;;;4.25;1.40;;;19.20;76.80;;;;;;5108957;27;20035;-73
2023/09/01 09:16:57;;;;;;;1.60;1.25;;;19.20;77.00;;;;;;5084627;28;20505;-72
2023/09/01 09:19:24;;;;;;;3.60;1.15;;;19.20;77.00;;;;;;5102633;28;20035;-72
2023/09/01 09:22:05;;;;;;;1.65;1.35;;;19.20;76.90;;;;;;5113548;27;20020;-73
2023/09/01 09:24:36;;;;;;;3.58;1.95;;;19.30;76.80;;;;;;5110765;27;20024;-73
2023/09/01 09:27:05;;;;;;;1.30;1.10;;;19.30;76.80;;;;;;5108767;27;20057;-72
2023/09/01 09:29:39;;;;;;;1.65;1.48;;;19.40;76.80;;;;;;5109297;28;20398;-72
2023/09/01 09:32:20;;;;;;;6.00;1.73;;;19.40;76.70;;;;;;5096443;28;20082;-72
2023/09/01 09:35:19;;;;;;;5.03;1.20;;;19.50;76.70;;;;;;5108993;27;20550;-72
2023/09/01 09:37:57;;;;;;;2.88;1.30;;;19.50;76.60;;;;;;5094508;27;20039;-72
2023/09/01 09:40:22;;;;;;;2.90;1.10;;;19.50;76.70;;;;;;5106198;28;20503;-73
2023/09/01 09:42:48;;;;;;;2.60;1.30;;;19.60;76.70;;;;;;5105896;28;20027;-72
2023/09/01 09:45:33;;;;;;;0.80;0.75;;;19.60;76.70;;;;;;5116777;27;20019;-72
2023/09/01 09:48:01;;;;;;;1.65;1.20;;;19.60;76.60;;;;;;5106596;28;20532;-72
2023/09/01 09:50:28;;;;;;;1.88;1.10;;;19.60;76.60;;;;;;5100991;28;20055;-72
2023/09/01 09:52:59;;;;;;;2.05;1.45;;;19.60;76.60;;;;;;5096043;27;20597;-70
2023/09/01 09:55:39;;;;;;;3.65;1.52;;;19.60;76.60;;;;;;5108047;27;20088;-72
2023/09/01 09:58:07;;;;;;;1.48;1.33;;;19.50;76.70;;;;;;5101613;27;20036;-72
2023/09/01 10:00:53;;;;;;;1.45;1.10;;;19.50;76.80;;;;;;5109118;27;20115;-72
2023/09/01 10:03:23;;;;;;;1.60;1.17;;;19.60;76.80;;;;;;5103567;27;20039;-72
2023/09/01 10:05:50;;;;;;;3.42;1.10;;;19.50;76.80;;;;;;5103356;28;20059;-72
2023/09/01 10:08:19;;;;;;;1.80;1.40;;;19.50;77.00;;;;;;5109501;27;20030;-72
2023/09/01 10:10:45;;;;;;;1.40;1.20;;;19.50;77.00;;;;;;5106881;27;20035;-72
2023/09/01 10:13:12;;;;;;;1.80;1.10;;;19.50;77.10;;;;;;5106756;27;20028;-72
2023/09/01 10:15:38;;;;;;;2.30;1.30;;;19.50;77.30;;;;;;5090721;28;20043;-72
2023/09/01 10:18:07;;;;;;;2.10;1.77;;;19.40;77.30;;;;;;5109784;27;20041;-72
2023/09/01 10:20:43;;;;;;;2.53;1.33;;;19.40;77.50;;;;;;5111266;27;20039;-72
2023/09/01 10:23:10;;;;;;;2.45;1.60;;;19.40;77.60;;;;;;5107601;27;20141;-72
2023/09/01 10:25:36;;;;;;;2.97;1.13;;;19.30;77.60;;;;;;5109141;28;20445;-72
2023/09/01 10:28:07;;;;;;;2.90;1.80;;;19.30;77.90;;;;;;5107001;28;20024;-72
2023/09/01 10:30:33;;;;;;;2.63;1.52;;;19.30;78.10;;;;;;5106027;28;20032;-70
2023/09/01 10:33:14;;;;;;;3.05;2.03;;;19.20;78.20;;;;;;5110784;28;20038;-70
2023/09/01 10:35:48;;;;;;;2.13;1.52;;;19.20;78.20;;;;;;5111458;28;20039;-70
2023/09/01 10:38:22;;;;;;;1.85;1.20;;;19.20;78.40;;;;;;5109346;28;20092;-73
2023/09/01 10:40:52;;;;;;;6.45;1.13;;;19.20;78.60;;;;;;5108175;28;20073;-73
2023/09/01 10:43:41;;;;;;;1.83;1.45;;;19.20;78.60;;;;;;5093658;28;20028;-72
2023/09/01 10:46:15;;;;;;;3.03;2.03;;;19.20;78.60;;;;;;5104362;28;20035;-73
2023/09/01 10:48:51;;;;;;;3.97;1.90;;;19.10;78.90;;;;;;5111124;28;20428;-70
2023/09/01 10:51:19;;;;;;;2.30;1.45;;;19.10;79.10;;;;;;5103640;28;20510;-72
2023/09/01 10:53:45;;;;;;;1.73;1.40;;;19.10;79.20;;;;;;5110699;28;20324;-72
2023/09/01 10:56:15;;;;;;;2.90;1.30;;;19.00;79.40;;;;;;5108523;28;20089;-72
2023/09/01 10:58:44;;;;;;;1.58;1.10;;;19.00;79.40;;;;;;5107726;28;20063;-72
2023/09/01 11:01:26;;;;;;;1.40;1.30;;;19.00;79.40;;;;;;5109888;28;20027;-72
2023/09/01 11:03:52;;;;;;;1.55;1.45;;;19.10;79.50;;;;;;5110618;28;20510;-72
2023/09/01 11:06:17;;;;;;;3.17;1.48;;;19.10;79.50;;;;;;5110704;27;20103;-72
2023/09/01 11:09:00;;;;;;;1.80;1.17;;;19.10;79.40;;;;;;5106848;28;20035;-73
2023/09/01 11:11:26;;;;;;;1.50;1.40;;;19.20;79.40;;;;;;5106925;28;20046;-72
2023/09/01 11:14:02;;;;;;;3.03;1.67;;;19.20;79.40;;;;;;5109762;28;20055;-72
2023/09/01 11:16:27;;;;;;;2.10;1.38;;;19.30;79.20;;;;;;5102695;28;20034;-72
2023/09/01 11:19:03;;;;;;;2.95;1.88;;;19.30;79.20;;;;;;5091811;28;20040;-73
2023/09/01 11:21:30;;;;;;;3.25;2.00;;;19.40;79.20;;;;;;5107746;28;20043;-72
2023/09/01 11:24:00;;;;;;;2.30;1.42;;;19.40;79.20;;;;;;5109749;27;20466;-70
2023/09/01 11:26:26;;;;;;;2.72;1.63;;;19.40;79.20;;;;;;5110409;28;20024;-70
2023/09/01 11:28:53;;;;;;;1.70;1.30;;;19.40;79.10;;;;;;5108382;27;20035;-70
2023/09/01 11:31:19;;;;;;;2.25;1.65;;;19.40;79.20;;;;;;5106136;28;20110;-70
2023/09/01 11:33:52;;;;;;;1.85;1.63;;;19.50;79.20;;;;;;5108082;28;20137;-70
2023/09/01 11:36:18;;;;;;;1.90;1.40;;;19.50;79.20;;;;;;5108338;28;20030;-70
2023/09/01 11:38:44;;;;;;;3.10;1.70;;;19.50;79.20;;;;;;5091075;28;20089;-70
2023/09/01 11:41:19;;;;;;;3.25;1.48;;;19.50;79.20;;;;;;5107450;28;20482;-71
2023/09/01 11:43:45;;;;;;;1.70;1.58;;;19.50;79.30;;;;;;5108299;28;20485;-70
2023/09/01 11:46:11;;;;;;;1.95;1.75;;;19.50;79.30;;;;;;5110167;28;20027;-70
2023/09/01 11:48:37;;;;;;;1.90;1.70;;;19.50;79.30;;;;;;5109302;28;20032;-71
2023/09/01 11:51:04;;;;;;;1.70;1.27;;;19.50;79.30;;;;;;5108202;28;20027;-70
2023/09/01 11:53:33;;;;;;;3.17;1.50;;;19.50;79.40;;;;;;5109166;28;20019;-70
2023/09/01 11:56:01;;;;;;;2.75;1.80;;;19.60;79.40;;;;;;5104104;28;20039;-70
2023/09/01 11:58:32;;;;;;;2.20;1.73;;;19.60;79.40;;;;;;5091050;28;20035;-70
2023/09/01 12:01:12;;;;;;;1.67;1.55;;;19.70;79.30;;;;;;5109489;28;20028;-70
2023/09/01 12:03:38;;;;;;;2.40;2.15;;;19.80;79.10;;;;;;5105947;28;20071;-70
2023/09/01 12:06:20;;;;;;;6.05;3.00;;;19.90;79.10;;;;;;5105746;28;20032;-70
2023/09/01 12:08:47;;;;;;;3.50;3.05;;;20.10;79.10;;;;;;5105424;28;20402;-70
2023/09/01 12:11:13;;;;;;;2.03;1.58;;;20.10;79.50;;;;;;5104429;28;20470;-70
2023/09/01 12:13:39;;;;;;;2.85;2.00;;;20.20;78.70;;;;;;5103624;28;20073;-70
2023/09/01 12:16:05;;;;;;;2.45;1.70;;;20.30;78.60;;;;;;5105779;28;20035;-71
2023/09/01 12:18:33;;;;;;;2.83;1.80;;;20.40;78.30;;;;;;5108112;28;20035;-71
2023/09/01 12:21:00;;;;;;;5.03;3.30;;;20.40;78.20;;;;;;5109056;28;20026;-70
2023/09/01 12:23:35;;;;;;;4.03;2.25;;;20.40;78.10;;;;;;5106119;28;20047;-71
2023/09/01 12:26:01;;;;;;;5.05;1.75;;;20.40;78.30;;;;;;5108150;28;20028;-70
2023/09/01 12:28:29;;;;;;;4.28;2.65;;;20.40;78.30;;;;;;5107739;28;20542;-71
2023/09/01 12:30:56;;;;;;;2.00;1.65;;;20.40;78.40;;;;;;5107760;28;20498;-71
2023/09/01 12:33:23;;;;;;;2.55;1.80;;;20.50;78.30;;;;;;5103969;28;20069;-71
2023/09/01 12:35:50;;;;;;;3.03;1.98;;;20.70;77.80;;;;;;5109776;28;20088;-71
2023/09/01 12:38:16;;;;;;;2.47;2.28;;;20.90;77.50;;;;;;5106377;28;20039;-70
2023/09/01 12:40:42;;;;;;;2.22;1.95;;;21.00;77.30;;;;;;5108453;28;20374;-70
2023/09/01 12:43:08;;;;;;;2.90;2.47;;;21.10;77.20;;;;;;5109164;28;20016;-70
2023/09/01 12:45:33;;;;;;;1.90;1.77;;;21.10;77.10;;;;;;5109924;28;20024;-70
2023/09/01 12:48:00;;;;;;;3.05;2.20;;;21.10;77.00;;;;;;5107876;28;20119;-70
2023/09/01 12:50:28;;;;;;;2.92;2.53;;;21.20;77.00;;;;;;5094561;28;20455;-70
2023/09/01 12:52:57;;;;;;;5.22;2.60;;;21.20;77.00;;;;;;5106905;28;20484;-70